sensor_id;sensor_type;location;lat;lon;timestamp;P1;durP1;ratioP1;P2;durP2;ratioP2
47617;SDS011;33336;36.728;-4.414;2023-12-20T00:04:26;4.03;;;1.50;;
47617;SDS011;33336;36.728;-4.414;2023-12-20T00:09:30;2.30;;;1.60;;
47617;SDS011;33336;36.728;-4.414;2023-12-20T00:14:35;5.78;;;1.67;;
47617;SDS011;33336;36.728;-4.414;2023-12-20T00:19:38;2.75;;;1.30;;
47617;SDS011;33336;36.728;-4.414;2023-12-20T00:24:42;2.15;;;1.40;;
47617;SDS011;33336;36.728;-4.414;2023-12-20T00:29:48;3.40;;;1.33;;
47617;SDS011;33336;36.728;-4.414;2023-12-20T00:34:51;4.38;;;1.65;;
47617;SDS011;33336;36.728;-4.414;2023-12-20T00:39:54;2.03;;;1.40;;
47617;SDS011;33336;36.728;-4.414;2023-12-20T00:45:00;3.75;;;2.08;;
47617;SDS011;33336;36.728;-4.414;2023-12-20T00:50:06;2.15;;;1.52;;
47617;SDS011;33336;36.728;-4.414;2023-12-20T00:55:09;1.63;;;1.40;;
47617;SDS011;33336;36.728;-4.414;2023-12-20T01:00:15;2.95;;;1.95;;
47617;SDS011;33336;36.728;-4.414;2023-12-20T01:05:18;2.45;;;1.20;;
47617;SDS011;33336;36.728;-4.414;2023-12-20T01:10:24;13.75;;;5.88;;
47617;SDS011;33336;36.728;-4.414;2023-12-20T01:15:30;2.35;;;1.35;;
47617;SDS011;33336;36.728;-4.414;2023-12-20T01:20:33;10.45;;;2.00;;
47617;SDS011;33336;36.728;-4.414;2023-12-20T01:25:38;2.53;;;1.55;;
47617;SDS011;33336;36.728;-4.414;2023-12-20T01:30:44;1.85;;;1.17;;
47617;SDS011;33336;36.728;-4.414;2023-12-20T01:35:47;1.80;;;1.20;;
47617;SDS011;33336;36.728;-4.414;2023-12-20T01:40:50;2.88;;;2.10;;
47617;SDS011;33336;36.728;-4.414;2023-12-20T01:45:54;3.05;;;2.20;;
47617;SDS011;33336;36.728;-4.414;2023-12-20T01:50:59;4.68;;;1.60;;
47617;SDS011;33336;36.728;-4.414;2023-12-20T01:56:04;2.65;;;1.85;;
47617;SDS011;33336;36.728;-4.414;2023-12-20T02:01:10;2.05;;;1.48;;
47617;SDS011;33336;36.728;-4.414;2023-12-20T02:06:13;2.20;;;1.42;;
47617;SDS011;33336;36.728;-4.414;2023-12-20T02:11:17;4.53;;;1.38;;
47617;SDS011;33336;36.728;-4.414;2023-12-20T02:16:21;3.20;;;1.25;;
47617;SDS011;33336;36.728;-4.414;2023-12-20T02:21:31;3.33;;;1.60;;
47617;SDS011;33336;36.728;-4.414;2023-12-20T02:26:35;2.00;;;1.40;;
47617;SDS011;33336;36.728;-4.414;2023-12-20T02:31:39;5.50;;;1.73;;
47617;SDS011;33336;36.728;-4.414;2023-12-20T02:36:43;3.20;;;1.50;;
47617;SDS011;33336;36.728;-4.414;2023-12-20T02:41:46;2.35;;;1.60;;
47617;SDS011;33336;36.728;-4.414;2023-12-20T02:46:50;3.42;;;1.85;;
47617;SDS011;33336;36.728;-4.414;2023-12-20T02:51:54;4.65;;;1.40;;
47617;SDS011;33336;36.728;-4.414;2023-12-20T02:56:58;2.33;;;1.30;;
47617;SDS011;33336;36.728;-4.414;2023-12-20T03:02:01;2.63;;;2.03;;
47617;SDS011;33336;36.728;-4.414;2023-12-20T03:07:06;3.63;;;2.10;;
47617;SDS011;33336;36.728;-4.414;2023-12-20T03:12:09;2.67;;;1.92;;
47617;SDS011;33336;36.728;-4.414;2023-12-20T03:17:13;3.72;;;2.60;;
47617;SDS011;33336;36.728;-4.414;2023-12-20T03:22:21;3.78;;;2.13;;
47617;SDS011;33336;36.728;-4.414;2023-12-20T03:27:24;6.43;;;2.22;;
47617;SDS011;33336;36.728;-4.414;2023-12-20T03:32:27;2.92;;;2.20;;
47617;SDS011;33336;36.728;-4.414;2023-12-20T03:37:31;6.70;;;2.35;;
47617;SDS011;33336;36.728;-4.414;2023-12-20T03:42:34;3.65;;;1.88;;
47617;SDS011;33336;36.728;-4.414;2023-12-20T03:47:37;2.33;;;2.03;;
47617;SDS011;33336;36.728;-4.414;2023-12-20T03:52:41;2.90;;;2.00;;
47617;SDS011;33336;36.728;-4.414;2023-12-20T03:57:45;2.83;;;1.70;;
47617;SDS011;33336;36.728;-4.414;2023-12-20T04:02:48;3.10;;;2.20;;
47617;SDS011;33336;36.728;-4.414;2023-12-20T04:07:52;2.85;;;2.08;;
47617;SDS011;33336;36.728;-4.414;2023-12-20T04:12:55;3.00;;;1.98;;
47617;SDS011;33336;36.728;-4.414;2023-12-20T04:17:59;2.00;;;1.63;;
47617;SDS011;33336;36.728;-4.414;2023-12-20T04:23:03;2.78;;;1.80;;
47617;SDS011;33336;36.728;-4.414;2023-12-20T04:28:07;2.92;;;1.83;;
47617;SDS011;33336;36.728;-4.414;2023-12-20T04:33:10;2.33;;;2.05;;
47617;SDS011;33336;36.728;-4.414;2023-12-20T04:38:14;2.78;;;2.00;;
47617;SDS011;33336;36.728;-4.414;2023-12-20T04:43:17;3.42;;;1.95;;
47617;SDS011;33336;36.728;-4.414;2023-12-20T04:48:21;2.33;;;1.65;;
47617;SDS011;33336;36.728;-4.414;2023-12-20T04:53:25;5.45;;;2.00;;
47617;SDS011;33336;36.728;-4.414;2023-12-20T04:58:29;2.90;;;1.70;;
47617;SDS011;33336;36.728;-4.414;2023-12-20T05:03:32;2.92;;;1.92;;
47617;SDS011;33336;36.728;-4.414;2023-12-20T05:08:36;2.28;;;1.42;;
47617;SDS011;33336;36.728;-4.414;2023-12-20T05:13:39;3.20;;;1.95;;
47617;SDS011;33336;36.728;-4.414;2023-12-20T05:18:43;6.05;;;1.73;;
47617;SDS011;33336;36.728;-4.414;2023-12-20T05:23:48;3.22;;;1.45;;
47617;SDS011;33336;36.728;-4.414;2023-12-20T05:28:54;4.07;;;2.00;;
47617;SDS011;33336;36.728;-4.414;2023-12-20T05:33:57;4.43;;;2.00;;
47617;SDS011;33336;36.728;-4.414;2023-12-20T05:39:02;4.70;;;1.88;;
47617;SDS011;33336;36.728;-4.414;2023-12-20T05:44:05;3.53;;;1.52;;
47617;SDS011;33336;36.728;-4.414;2023-12-20T05:49:08;6.07;;;2.03;;
47617;SDS011;33336;36.728;-4.414;2023-12-20T05:54:13;5.30;;;1.42;;
47617;SDS011;33336;36.728;-4.414;2023-12-20T05:59:17;4.80;;;1.90;;
47617;SDS011;33336;36.728;-4.414;2023-12-20T06:04:20;3.55;;;1.27;;
47617;SDS011;33336;36.728;-4.414;2023-12-20T06:09:26;6.63;;;1.90;;
47617;SDS011;33336;36.728;-4.414;2023-12-20T06:14:29;5.30;;;1.92;;
47617;SDS011;33336;36.728;-4.414;2023-12-20T06:19:32;5.10;;;1.98;;
47617;SDS011;33336;36.728;-4.414;2023-12-20T06:24:36;4.53;;;2.03;;
47617;SDS011;33336;36.728;-4.414;2023-12-20T06:29:40;4.97;;;2.05;;
47617;SDS011;33336;36.728;-4.414;2023-12-20T06:34:45;6.80;;;2.15;;
47617;SDS011;33336;36.728;-4.414;2023-12-20T06:39:50;4.85;;;2.67;;
47617;SDS011;33336;36.728;-4.414;2023-12-20T06:44:53;5.57;;;1.50;;
47617;SDS011;33336;36.728;-4.414;2023-12-20T06:49:57;4.65;;;1.63;;
47617;SDS011;33336;36.728;-4.414;2023-12-20T06:55:01;6.93;;;1.60;;
47617;SDS011;33336;36.728;-4.414;2023-12-20T07:00:05;4.50;;;1.90;;
47617;SDS011;33336;36.728;-4.414;2023-12-20T07:05:09;5.00;;;1.60;;
47617;SDS011;33336;36.728;-4.414;2023-12-20T07:10:14;3.10;;;1.95;;
47617;SDS011;33336;36.728;-4.414;2023-12-20T07:15:17;4.68;;;1.70;;
47617;SDS011;33336;36.728;-4.414;2023-12-20T07:20:21;2.38;;;1.30;;
47617;SDS011;33336;36.728;-4.414;2023-12-20T07:25:25;6.38;;;1.98;;
47617;SDS011;33336;36.728;-4.414;2023-12-20T07:30:29;2.83;;;1.70;;
47617;SDS011;33336;36.728;-4.414;2023-12-20T07:35:32;3.95;;;1.55;;
47617;SDS011;33336;36.728;-4.414;2023-12-20T07:40:36;5.60;;;2.03;;
47617;SDS011;33336;36.728;-4.414;2023-12-20T07:45:39;3.33;;;1.60;;
47617;SDS011;33336;36.728;-4.414;2023-12-20T07:50:43;7.93;;;2.33;;
47617;SDS011;33336;36.728;-4.414;2023-12-20T07:55:47;8.90;;;2.33;;
47617;SDS011;33336;36.728;-4.414;2023-12-20T08:00:51;3.72;;;1.73;;
47617;SDS011;33336;36.728;-4.414;2023-12-20T08:05:54;4.30;;;1.30;;
47617;SDS011;33336;36.728;-4.414;2023-12-20T08:10:59;3.35;;;1.40;;
47617;SDS011;33336;36.728;-4.414;2023-12-20T08:16:03;3.67;;;1.08;;
47617;SDS011;33336;36.728;-4.414;2023-12-20T08:21:06;5.68;;;1.38;;
47617;SDS011;33336;36.728;-4.414;2023-12-20T08:26:10;3.90;;;1.27;;
47617;SDS011;33336;36.728;-4.414;2023-12-20T08:31:15;2.50;;;0.98;;
47617;SDS011;33336;36.728;-4.414;2023-12-20T08:36:19;7.25;;;1.83;;
47617;SDS011;33336;36.728;-4.414;2023-12-20T08:41:25;2.35;;;1.42;;
47617;SDS011;33336;36.728;-4.414;2023-12-20T08:46:28;4.05;;;1.27;;
47617;SDS011;33336;36.728;-4.414;2023-12-20T08:51:32;3.90;;;1.48;;
47617;SDS011;33336;36.728;-4.414;2023-12-20T08:56:36;8.98;;;1.70;;
47617;SDS011;33336;36.728;-4.414;2023-12-20T09:01:39;5.25;;;1.17;;
47617;SDS011;33336;36.728;-4.414;2023-12-20T09:06:42;7.15;;;1.55;;
47617;SDS011;33336;36.728;-4.414;2023-12-20T09:11:47;2.58;;;1.23;;
47617;SDS011;33336;36.728;-4.414;2023-12-20T09:16:52;6.03;;;1.70;;
47617;SDS011;33336;36.728;-4.414;2023-12-20T09:21:57;3.88;;;1.20;;
47617;SDS011;33336;36.728;-4.414;2023-12-20T09:27:01;2.58;;;1.58;;
47617;SDS011;33336;36.728;-4.414;2023-12-20T09:32:05;2.60;;;1.42;;
47617;SDS011;33336;36.728;-4.414;2023-12-20T09:37:08;2.83;;;1.92;;
47617;SDS011;33336;36.728;-4.414;2023-12-20T09:42:14;3.95;;;1.60;;
47617;SDS011;33336;36.728;-4.414;2023-12-20T09:47:23;6.45;;;1.70;;
47617;SDS011;33336;36.728;-4.414;2023-12-20T09:52:26;2.97;;;1.58;;
47617;SDS011;33336;36.728;-4.414;2023-12-20T09:57:31;3.80;;;1.70;;
47617;SDS011;33336;36.728;-4.414;2023-12-20T10:02:35;2.60;;;1.38;;
47617;SDS011;33336;36.728;-4.414;2023-12-20T10:07:40;2.17;;;1.35;;
47617;SDS011;33336;36.728;-4.414;2023-12-20T10:13:00;4.85;;;1.92;;
47617;SDS011;33336;36.728;-4.414;2023-12-20T10:18:05;3.28;;;1.70;;
47617;SDS011;33336;36.728;-4.414;2023-12-20T10:23:08;4.25;;;1.83;;
47617;SDS011;33336;36.728;-4.414;2023-12-20T10:28:13;3.60;;;1.88;;
47617;SDS011;33336;36.728;-4.414;2023-12-20T10:33:23;4.57;;;2.20;;
47617;SDS011;33336;36.728;-4.414;2023-12-20T10:38:27;4.32;;;1.75;;
47617;SDS011;33336;36.728;-4.414;2023-12-20T10:43:32;6.15;;;3.00;;
47617;SDS011;33336;36.728;-4.414;2023-12-20T10:48:35;4.85;;;1.67;;
47617;SDS011;33336;36.728;-4.414;2023-12-20T10:53:41;4.90;;;2.08;;
47617;SDS011;33336;36.728;-4.414;2023-12-20T10:58:46;1.40;;;1.17;;
47617;SDS011;33336;36.728;-4.414;2023-12-20T11:03:51;3.78;;;1.98;;
47617;SDS011;33336;36.728;-4.414;2023-12-20T11:08:57;9.25;;;3.47;;
47617;SDS011;33336;36.728;-4.414;2023-12-20T11:14:14;3.65;;;1.60;;
47617;SDS011;33336;36.728;-4.414;2023-12-20T11:19:21;7.05;;;1.80;;
47617;SDS011;33336;36.728;-4.414;2023-12-20T11:24:24;10.40;;;2.28;;
47617;SDS011;33336;36.728;-4.414;2023-12-20T11:29:32;14.15;;;3.42;;
47617;SDS011;33336;36.728;-4.414;2023-12-20T11:34:37;25.25;;;5.93;;
47617;SDS011;33336;36.728;-4.414;2023-12-20T11:39:41;8.95;;;2.35;;
47617;SDS011;33336;36.728;-4.414;2023-12-20T11:44:47;4.07;;;1.80;;
47617;SDS011;33336;36.728;-4.414;2023-12-20T11:49:52;5.78;;;2.30;;
47617;SDS011;33336;36.728;-4.414;2023-12-20T11:54:57;4.38;;;2.15;;
47617;SDS011;33336;36.728;-4.414;2023-12-20T12:00:01;3.78;;;2.25;;
47617;SDS011;33336;36.728;-4.414;2023-12-20T12:05:05;7.53;;;2.80;;
47617;SDS011;33336;36.728;-4.414;2023-12-20T12:10:08;9.10;;;2.90;;
47617;SDS011;33336;36.728;-4.414;2023-12-20T12:15:13;7.75;;;2.22;;
47617;SDS011;33336;36.728;-4.414;2023-12-20T12:20:17;5.88;;;2.50;;
47617;SDS011;33336;36.728;-4.414;2023-12-20T12:25:23;4.50;;;2.38;;
47617;SDS011;33336;36.728;-4.414;2023-12-20T12:30:27;5.25;;;2.38;;
47617;SDS011;33336;36.728;-4.414;2023-12-20T12:35:31;5.72;;;2.45;;
47617;SDS011;33336;36.728;-4.414;2023-12-20T12:40:35;8.95;;;2.60;;
47617;SDS011;33336;36.728;-4.414;2023-12-20T12:45:40;3.92;;;2.75;;
47617;SDS011;33336;36.728;-4.414;2023-12-20T12:50:43;3.70;;;2.00;;
47617;SDS011;33336;36.728;-4.414;2023-12-20T12:55:48;4.38;;;2.03;;
47617;SDS011;33336;36.728;-4.414;2023-12-20T13:00:52;4.80;;;2.28;;
47617;SDS011;33336;36.728;-4.414;2023-12-20T13:05:55;6.63;;;2.92;;
47617;SDS011;33336;36.728;-4.414;2023-12-20T13:10:58;9.65;;;3.03;;
47617;SDS011;33336;36.728;-4.414;2023-12-20T13:16:04;7.35;;;2.30;;
47617;SDS011;33336;36.728;-4.414;2023-12-20T13:21:07;5.50;;;2.35;;
47617;SDS011;33336;36.728;-4.414;2023-12-20T13:26:10;8.15;;;3.17;;
47617;SDS011;33336;36.728;-4.414;2023-12-20T13:31:14;7.22;;;2.50;;
47617;SDS011;33336;36.728;-4.414;2023-12-20T13:36:18;3.88;;;3.17;;
47617;SDS011;33336;36.728;-4.414;2023-12-20T13:41:21;6.18;;;2.58;;
47617;SDS011;33336;36.728;-4.414;2023-12-20T13:46:25;8.48;;;3.05;;
47617;SDS011;33336;36.728;-4.414;2023-12-20T13:51:28;4.88;;;2.95;;
47617;SDS011;33336;36.728;-4.414;2023-12-20T13:56:32;9.05;;;3.35;;
47617;SDS011;33336;36.728;-4.414;2023-12-20T14:01:36;5.45;;;3.50;;
47617;SDS011;33336;36.728;-4.414;2023-12-20T14:06:40;6.65;;;3.15;;
47617;SDS011;33336;36.728;-4.414;2023-12-20T14:11:43;4.32;;;2.95;;
47617;SDS011;33336;36.728;-4.414;2023-12-20T14:16:48;3.17;;;2.88;;
47617;SDS011;33336;36.728;-4.414;2023-12-20T14:21:51;6.18;;;2.78;;
47617;SDS011;33336;36.728;-4.414;2023-12-20T14:26:55;7.00;;;3.50;;
47617;SDS011;33336;36.728;-4.414;2023-12-20T14:32:00;5.47;;;3.42;;
47617;SDS011;33336;36.728;-4.414;2023-12-20T14:37:05;5.85;;;3.00;;
47617;SDS011;33336;36.728;-4.414;2023-12-20T14:42:08;4.22;;;2.90;;
47617;SDS011;33336;36.728;-4.414;2023-12-20T14:47:15;7.60;;;2.60;;
47617;SDS011;33336;36.728;-4.414;2023-12-20T14:52:18;5.95;;;3.05;;
47617;SDS011;33336;36.728;-4.414;2023-12-20T14:57:22;3.50;;;2.40;;
47617;SDS011;33336;36.728;-4.414;2023-12-20T15:02:26;8.25;;;3.80;;
47617;SDS011;33336;36.728;-4.414;2023-12-20T15:07:30;4.78;;;3.78;;
47617;SDS011;33336;36.728;-4.414;2023-12-20T15:12:32;5.35;;;3.35;;
47617;SDS011;33336;36.728;-4.414;2023-12-20T15:17:37;5.78;;;3.13;;
47617;SDS011;33336;36.728;-4.414;2023-12-20T15:22:40;8.25;;;4.18;;
47617;SDS011;33336;36.728;-4.414;2023-12-20T15:27:47;4.90;;;3.63;;
47617;SDS011;33336;36.728;-4.414;2023-12-20T15:32:54;5.20;;;3.40;;
47617;SDS011;33336;36.728;-4.414;2023-12-20T15:37:59;4.53;;;3.13;;
47617;SDS011;33336;36.728;-4.414;2023-12-20T15:43:02;7.20;;;3.40;;
47617;SDS011;33336;36.728;-4.414;2023-12-20T15:48:07;4.10;;;2.88;;
47617;SDS011;33336;36.728;-4.414;2023-12-20T15:53:12;4.23;;;2.53;;
47617;SDS011;33336;36.728;-4.414;2023-12-20T15:58:15;7.03;;;3.17;;
47617;SDS011;33336;36.728;-4.414;2023-12-20T16:03:19;6.78;;;3.47;;
47617;SDS011;33336;36.728;-4.414;2023-12-20T16:08:23;4.57;;;3.47;;
47617;SDS011;33336;36.728;-4.414;2023-12-20T16:13:25;4.63;;;3.00;;
47617;SDS011;33336;36.728;-4.414;2023-12-20T16:18:31;7.45;;;3.35;;
47617;SDS011;33336;36.728;-4.414;2023-12-20T16:23:36;8.00;;;4.03;;
47617;SDS011;33336;36.728;-4.414;2023-12-20T16:28:39;7.55;;;4.07;;
47617;SDS011;33336;36.728;-4.414;2023-12-20T16:33:43;5.22;;;3.58;;
47617;SDS011;33336;36.728;-4.414;2023-12-20T16:38:47;6.13;;;3.80;;
47617;SDS011;33336;36.728;-4.414;2023-12-20T16:43:50;5.28;;;3.70;;
47617;SDS011;33336;36.728;-4.414;2023-12-20T16:48:54;9.35;;;4.00;;
47617;SDS011;33336;36.728;-4.414;2023-12-20T16:53:57;6.75;;;3.83;;
47617;SDS011;33336;36.728;-4.414;2023-12-20T16:59:01;6.25;;;3.58;;
47617;SDS011;33336;36.728;-4.414;2023-12-20T17:04:05;5.60;;;3.72;;
47617;SDS011;33336;36.728;-4.414;2023-12-20T17:09:08;6.13;;;3.67;;
47617;SDS011;33336;36.728;-4.414;2023-12-20T17:14:11;11.30;;;3.95;;
47617;SDS011;33336;36.728;-4.414;2023-12-20T17:19:15;6.00;;;3.45;;
47617;SDS011;33336;36.728;-4.414;2023-12-20T17:24:18;6.55;;;3.55;;
47617;SDS011;33336;36.728;-4.414;2023-12-20T17:29:22;5.78;;;3.67;;
47617;SDS011;33336;36.728;-4.414;2023-12-20T17:34:26;4.20;;;3.05;;
47617;SDS011;33336;36.728;-4.414;2023-12-20T17:39:30;4.97;;;3.17;;
47617;SDS011;33336;36.728;-4.414;2023-12-20T17:44:33;6.70;;;4.30;;
47617;SDS011;33336;36.728;-4.414;2023-12-20T17:49:37;7.75;;;4.22;;
47617;SDS011;33336;36.728;-4.414;2023-12-20T17:54:40;7.40;;;4.07;;
47617;SDS011;33336;36.728;-4.414;2023-12-20T17:59:44;8.07;;;4.25;;
47617;SDS011;33336;36.728;-4.414;2023-12-20T18:04:48;8.60;;;4.32;;
47617;SDS011;33336;36.728;-4.414;2023-12-20T18:09:52;7.22;;;3.90;;
47617;SDS011;33336;36.728;-4.414;2023-12-20T18:14:54;11.15;;;4.50;;
47617;SDS011;33336;36.728;-4.414;2023-12-20T18:19:59;4.38;;;3.10;;
47617;SDS011;33336;36.728;-4.414;2023-12-20T18:25:05;4.60;;;3.15;;
47617;SDS011;33336;36.728;-4.414;2023-12-20T18:30:09;5.80;;;3.55;;
47617;SDS011;33336;36.728;-4.414;2023-12-20T18:35:14;4.50;;;3.10;;
47617;SDS011;33336;36.728;-4.414;2023-12-20T18:40:18;5.68;;;3.15;;
47617;SDS011;33336;36.728;-4.414;2023-12-20T18:45:22;3.63;;;2.40;;
47617;SDS011;33336;36.728;-4.414;2023-12-20T18:50:26;3.30;;;2.25;;
47617;SDS011;33336;36.728;-4.414;2023-12-20T18:55:29;4.15;;;2.63;;
47617;SDS011;33336;36.728;-4.414;2023-12-20T19:00:32;4.45;;;1.90;;
47617;SDS011;33336;36.728;-4.414;2023-12-20T19:05:36;5.10;;;2.47;;
47617;SDS011;33336;36.728;-4.414;2023-12-20T19:10:42;5.75;;;2.42;;
47617;SDS011;33336;36.728;-4.414;2023-12-20T19:15:45;3.33;;;1.98;;
47617;SDS011;33336;36.728;-4.414;2023-12-20T19:20:50;3.78;;;2.55;;
47617;SDS011;33336;36.728;-4.414;2023-12-20T19:25:55;5.40;;;2.70;;
47617;SDS011;33336;36.728;-4.414;2023-12-20T19:30:59;7.55;;;3.53;;
47617;SDS011;33336;36.728;-4.414;2023-12-20T19:36:04;4.45;;;3.20;;
47617;SDS011;33336;36.728;-4.414;2023-12-20T19:41:08;9.15;;;3.63;;
47617;SDS011;33336;36.728;-4.414;2023-12-20T19:46:12;3.95;;;2.80;;
47617;SDS011;33336;36.728;-4.414;2023-12-20T19:51:17;2.55;;;1.45;;
47617;SDS011;33336;36.728;-4.414;2023-12-20T19:56:20;3.95;;;1.60;;
47617;SDS011;33336;36.728;-4.414;2023-12-20T20:01:24;1.95;;;1.00;;
47617;SDS011;33336;36.728;-4.414;2023-12-20T20:06:30;1.92;;;1.00;;
47617;SDS011;33336;36.728;-4.414;2023-12-20T20:11:36;3.00;;;1.02;;
47617;SDS011;33336;36.728;-4.414;2023-12-20T20:16:39;2.03;;;0.98;;
47617;SDS011;33336;36.728;-4.414;2023-12-20T20:21:45;2.25;;;0.93;;
47617;SDS011;33336;36.728;-4.414;2023-12-20T20:26:48;1.63;;;1.02;;
47617;SDS011;33336;36.728;-4.414;2023-12-20T20:31:52;1.20;;;0.88;;
47617;SDS011;33336;36.728;-4.414;2023-12-20T20:36:56;2.33;;;1.58;;
47617;SDS011;33336;36.728;-4.414;2023-12-20T20:42:01;1.85;;;1.20;;
47617;SDS011;33336;36.728;-4.414;2023-12-20T20:47:05;5.22;;;1.05;;
47617;SDS011;33336;36.728;-4.414;2023-12-20T20:52:10;3.33;;;0.98;;
47617;SDS011;33336;36.728;-4.414;2023-12-20T20:57:13;2.28;;;1.33;;
47617;SDS011;33336;36.728;-4.414;2023-12-20T21:02:17;4.43;;;1.35;;
47617;SDS011;33336;36.728;-4.414;2023-12-20T21:07:24;4.50;;;1.33;;
47617;SDS011;33336;36.728;-4.414;2023-12-20T21:12:28;1.88;;;1.08;;
47617;SDS011;33336;36.728;-4.414;2023-12-20T21:17:31;1.70;;;0.85;;
47617;SDS011;33336;36.728;-4.414;2023-12-20T21:22:35;2.05;;;1.08;;
47617;SDS011;33336;36.728;-4.414;2023-12-20T21:27:38;2.28;;;0.98;;
47617;SDS011;33336;36.728;-4.414;2023-12-20T21:32:42;1.38;;;0.95;;
47617;SDS011;33336;36.728;-4.414;2023-12-20T21:37:47;1.25;;;1.10;;
47617;SDS011;33336;36.728;-4.414;2023-12-20T21:42:53;3.03;;;1.48;;
47617;SDS011;33336;36.728;-4.414;2023-12-20T21:47:58;2.63;;;1.90;;
47617;SDS011;33336;36.728;-4.414;2023-12-20T21:53:03;5.65;;;2.65;;
47617;SDS011;33336;36.728;-4.414;2023-12-20T21:58:10;4.07;;;2.40;;
47617;SDS011;33336;36.728;-4.414;2023-12-20T22:03:13;5.07;;;2.38;;
47617;SDS011;33336;36.728;-4.414;2023-12-20T22:08:18;4.35;;;2.47;;
47617;SDS011;33336;36.728;-4.414;2023-12-20T22:13:21;5.88;;;3.15;;
47617;SDS011;33336;36.728;-4.414;2023-12-20T22:18:24;4.35;;;2.78;;
47617;SDS011;33336;36.728;-4.414;2023-12-20T22:23:29;5.68;;;2.80;;
47617;SDS011;33336;36.728;-4.414;2023-12-20T22:28:32;4.72;;;2.28;;
47617;SDS011;33336;36.728;-4.414;2023-12-20T22:33:35;5.28;;;2.45;;
47617;SDS011;33336;36.728;-4.414;2023-12-20T22:38:40;5.20;;;2.38;;
47617;SDS011;33336;36.728;-4.414;2023-12-20T22:43:43;6.45;;;2.90;;
47617;SDS011;33336;36.728;-4.414;2023-12-20T22:48:46;3.70;;;2.58;;
47617;SDS011;33336;36.728;-4.414;2023-12-20T22:53:52;5.68;;;3.30;;
47617;SDS011;33336;36.728;-4.414;2023-12-20T22:58:56;6.57;;;3.38;;
47617;SDS011;33336;36.728;-4.414;2023-12-20T23:03:59;3.78;;;2.75;;
47617;SDS011;33336;36.728;-4.414;2023-12-20T23:09:04;5.68;;;2.75;;
47617;SDS011;33336;36.728;-4.414;2023-12-20T23:14:08;3.88;;;2.67;;
47617;SDS011;33336;36.728;-4.414;2023-12-20T23:19:12;5.55;;;2.65;;
47617;SDS011;33336;36.728;-4.414;2023-12-20T23:24:17;4.53;;;2.80;;
47617;SDS011;33336;36.728;-4.414;2023-12-20T23:29:20;4.20;;;2.88;;
47617;SDS011;33336;36.728;-4.414;2023-12-20T23:34:23;11.38;;;3.22;;
47617;SDS011;33336;36.728;-4.414;2023-12-20T23:39:28;4.43;;;3.40;;
47617;SDS011;33336;36.728;-4.414;2023-12-20T23:44:32;4.00;;;2.50;;
47617;SDS011;33336;36.728;-4.414;2023-12-20T23:49:35;3.65;;;2.53;;
47617;SDS011;33336;36.728;-4.414;2023-12-20T23:54:40;5.55;;;3.58;;
47617;SDS011;33336;36.728;-4.414;2023-12-20T23:59:43;7.28;;;4.95;;
